createdAt,value
2023-04-27T00:01:44.392Z,2.00
2023-04-27T00:04:30.132Z,1.88
2023-04-27T00:07:15.676Z,2.22
2023-04-27T00:10:01.009Z,1.73
2023-04-27T00:12:46.755Z,1.92
2023-04-27T00:15:32.213Z,1.93
2023-04-27T00:18:17.944Z,1.02
2023-04-27T00:21:03.334Z,1.92
2023-04-27T00:23:48.601Z,2.00
2023-04-27T00:26:34.257Z,2.17
2023-04-27T00:29:19.649Z,1.25
2023-04-27T00:32:05.053Z,1.98
2023-04-27T00:34:50.441Z,1.33
2023-04-27T00:37:36.661Z,1.40
2023-04-27T00:40:21.974Z,2.00
2023-04-27T00:43:07.524Z,2.33
2023-04-27T00:45:53.229Z,2.40
2023-04-27T00:48:39.248Z,2.33
2023-04-27T00:51:28.059Z,1.80
2023-04-27T00:54:15.612Z,1.85
2023-04-27T00:57:01.235Z,2.25
2023-04-27T00:59:47.158Z,2.50
2023-04-27T01:02:32.950Z,2.33
2023-04-27T01:05:19.220Z,2.78
2023-04-27T01:08:05.265Z,2.53
2023-04-27T01:10:50.644Z,2.50
2023-04-27T01:13:36.476Z,2.40
2023-04-27T01:16:22.037Z,2.55
2023-04-27T01:19:08.675Z,2.15
2023-04-27T01:21:54.691Z,2.28
2023-04-27T01:24:40.984Z,3.00
2023-04-27T01:27:26.464Z,2.83
2023-04-27T01:30:12.125Z,2.67
2023-04-27T01:32:57.481Z,2.88
2023-04-27T01:35:43.183Z,2.72
2023-04-27T01:38:28.642Z,2.75
2023-04-27T01:41:14.097Z,2.07
2023-04-27T01:43:59.553Z,1.85
2023-04-27T01:46:45.216Z,2.87
2023-04-27T01:49:30.564Z,2.43
2023-04-27T01:52:16.378Z,2.30
2023-04-27T01:55:01.780Z,1.92
2023-04-27T01:57:47.414Z,2.87
2023-04-27T02:00:33.318Z,1.80
2023-04-27T02:03:18.947Z,2.50
2023-04-27T02:06:04.924Z,2.92
2023-04-27T02:08:50.344Z,1.95
2023-04-27T02:11:35.881Z,2.90
2023-04-27T02:14:21.380Z,2.38
2023-04-27T02:17:06.802Z,3.05
2023-04-27T02:19:52.313Z,1.85
2023-04-27T02:22:44.420Z,3.00
2023-04-27T02:25:30.418Z,3.17
2023-04-27T02:28:15.810Z,2.85
2023-04-27T02:31:01.974Z,2.78
2023-04-27T02:33:47.675Z,2.80
2023-04-27T02:36:33.062Z,3.13
2023-04-27T02:39:18.478Z,2.53
2023-04-27T02:42:03.985Z,2.63
2023-04-27T02:44:49.458Z,3.50
2023-04-27T02:47:35.348Z,3.20
2023-04-27T02:50:21.359Z,2.60
2023-04-27T02:53:07.070Z,3.53
2023-04-27T02:55:52.468Z,3.13
2023-04-27T02:58:38.204Z,2.88
2023-04-27T03:01:23.576Z,2.95
2023-04-27T03:04:09.143Z,3.10
2023-04-27T03:06:55.104Z,2.80
2023-04-27T03:09:40.651Z,2.25
2023-04-27T03:12:26.396Z,3.47
2023-04-27T03:15:11.816Z,3.35
2023-04-27T03:17:57.569Z,3.33
2023-04-27T03:20:43.259Z,2.05
2023-04-27T03:23:28.803Z,2.90
2023-04-27T03:26:14.938Z,3.40
2023-04-27T03:29:00.921Z,3.00
2023-04-27T03:31:46.550Z,2.58
2023-04-27T03:34:32.115Z,3.33
2023-04-27T03:37:17.556Z,2.80
2023-04-27T03:40:07.185Z,3.08
2023-04-27T03:42:52.581Z,3.60
2023-04-27T03:45:38.101Z,2.20
2023-04-27T03:48:23.789Z,2.83
2023-04-27T03:51:09.465Z,3.22
2023-04-27T03:53:54.921Z,3.05
2023-04-27T03:56:40.919Z,3.40
2023-04-27T03:59:29.169Z,2.67
2023-04-27T04:02:15.120Z,3.72
2023-04-27T04:05:00.747Z,3.53
2023-04-27T04:07:46.367Z,3.30
2023-04-27T04:10:31.831Z,3.63
2023-04-27T04:13:17.583Z,3.03
2023-04-27T04:16:09.994Z,2.70
2023-04-27T04:18:55.459Z,3.35
2023-04-27T04:21:41.211Z,3.65
2023-04-27T04:24:26.527Z,3.57
2023-04-27T04:27:12.153Z,2.90
2023-04-27T04:30:00.183Z,3.10
2023-04-27T04:32:45.584Z,3.63
2023-04-27T04:35:33.003Z,3.20
2023-04-27T04:38:18.472Z,3.22
2023-04-27T04:41:04.004Z,2.70
2023-04-27T04:43:49.493Z,2.50
2023-04-27T04:46:37.224Z,3.47
2023-04-27T04:49:22.768Z,2.67
2023-04-27T04:52:08.464Z,2.67
2023-04-27T04:54:53.737Z,3.17
2023-04-27T04:57:39.474Z,1.98
2023-04-27T05:00:24.914Z,2.13
2023-04-27T05:03:10.439Z,3.00
2023-04-27T05:05:56.021Z,3.13
2023-04-27T05:08:41.370Z,2.65
2023-04-27T05:11:26.852Z,2.20
2023-04-27T05:14:12.458Z,1.80
2023-04-27T05:16:58.200Z,3.40
2023-04-27T05:19:43.999Z,3.75
2023-04-27T05:22:29.364Z,3.53
2023-04-27T05:25:15.104Z,2.72
2023-04-27T05:28:01.072Z,2.70
2023-04-27T05:30:46.502Z,1.88
2023-04-27T05:33:31.873Z,2.10
2023-04-27T05:36:17.176Z,1.80
2023-04-27T05:39:03.395Z,1.10
2023-04-27T05:41:49.221Z,0.98
2023-04-27T05:44:34.842Z,1.00
2023-04-27T05:47:20.192Z,0.90
2023-04-27T05:50:06.215Z,1.33
2023-04-27T05:52:51.660Z,0.95
2023-04-27T05:55:38.184Z,1.02
2023-04-27T05:58:23.477Z,1.17
2023-04-27T06:01:09.108Z,1.37
2023-04-27T06:03:55.420Z,1.23
2023-04-27T06:06:40.968Z,1.50
2023-04-27T06:09:27.614Z,1.42
2023-04-27T06:12:12.793Z,1.30
2023-04-27T06:14:58.623Z,1.35
2023-04-27T06:17:44.534Z,1.70
2023-04-27T06:20:29.936Z,1.50
2023-04-27T06:23:15.622Z,1.23
2023-04-27T06:26:02.412Z,1.50
2023-04-27T06:28:48.236Z,1.30
2023-04-27T06:31:34.474Z,1.10
2023-04-27T06:34:19.874Z,1.42
2023-04-27T06:37:05.457Z,1.08
2023-04-27T06:39:51.306Z,1.23
2023-04-27T06:42:36.975Z,1.20
2023-04-27T06:45:22.787Z,1.85
2023-04-27T06:48:08.106Z,1.30
2023-04-27T06:50:53.880Z,1.05
2023-04-27T06:53:39.764Z,1.10
2023-04-27T06:56:25.186Z,1.15
2023-04-27T06:59:11.630Z,1.20
2023-04-27T07:01:57.263Z,1.40
2023-04-27T07:04:43.384Z,0.95
2023-04-27T07:07:28.825Z,1.40
2023-04-27T07:10:14.525Z,1.17
2023-04-27T07:12:59.948Z,1.02
2023-04-27T07:15:45.573Z,0.90
2023-04-27T07:18:30.926Z,1.37
2023-04-27T07:21:16.243Z,1.37
2023-04-27T07:24:01.972Z,1.33
2023-04-27T07:26:48.020Z,1.50
2023-04-27T07:29:34.363Z,0.85
2023-04-27T07:35:05.864Z,0.80
2023-04-27T07:37:52.134Z,0.57
2023-04-27T07:40:37.823Z,1.00
2023-04-27T07:43:25.610Z,0.90
2023-04-27T07:46:11.804Z,0.77
2023-04-27T07:48:59.678Z,0.90
2023-04-27T07:51:45.466Z,1.40
2023-04-27T07:54:30.899Z,0.80
2023-04-27T07:57:16.482Z,0.73
2023-04-27T08:00:03.882Z,0.90
2023-04-27T08:02:50.595Z,1.10
2023-04-27T08:05:36.505Z,0.40
2023-04-27T08:08:22.774Z,1.00
2023-04-27T08:11:11.950Z,1.73
2023-04-27T08:13:57.664Z,0.75
2023-04-27T08:16:44.207Z,1.40
2023-04-27T08:19:30.119Z,0.65
2023-04-27T08:22:16.213Z,0.73
2023-04-27T08:25:03.830Z,0.60
2023-04-27T08:27:49.408Z,1.10
2023-04-27T08:30:35.503Z,0.70
2023-04-27T08:33:21.288Z,0.88
2023-04-27T08:36:08.053Z,0.77
2023-04-27T08:38:54.029Z,0.75
2023-04-27T08:41:42.581Z,1.10
2023-04-27T08:44:28.226Z,1.00
2023-04-27T08:47:13.663Z,0.80
2023-04-27T08:49:59.002Z,0.95
2023-04-27T08:52:46.132Z,0.90
2023-04-27T08:55:31.556Z,0.70
2023-04-27T08:58:17.219Z,0.82
2023-04-27T09:01:09.590Z,0.88
2023-04-27T09:04:00.429Z,0.60
2023-04-27T09:06:46.482Z,1.08
2023-04-27T09:09:31.785Z,1.23
2023-04-27T09:12:18.857Z,0.80
2023-04-27T09:15:06.100Z,0.73
2023-04-27T09:17:58.569Z,0.70
2023-04-27T09:20:45.216Z,0.95
2023-04-27T09:23:36.351Z,0.60
2023-04-27T09:26:27.405Z,0.57
2023-04-27T09:29:13.267Z,0.90
2023-04-27T09:31:59.050Z,0.70
2023-04-27T09:34:45.228Z,0.55
2023-04-27T09:37:32.249Z,0.57
2023-04-27T09:40:19.077Z,0.40
2023-04-27T09:43:04.462Z,0.50
2023-04-27T09:45:50.729Z,0.63
2023-04-27T09:48:38.730Z,0.55
2023-04-27T09:51:24.469Z,0.50
2023-04-27T09:54:13.391Z,0.68
2023-04-27T09:57:17.333Z,0.95
2023-04-27T10:00:17.662Z,0.88
2023-04-27T10:03:25.027Z,0.73
2023-04-27T10:06:37.681Z,1.02
2023-04-27T10:09:23.642Z,0.60
2023-04-27T10:12:27.177Z,0.70
2023-04-27T10:15:17.390Z,0.60
2023-04-27T10:18:06.050Z,0.93
2023-04-27T10:20:52.685Z,0.55
2023-04-27T10:23:46.891Z,0.70
2023-04-27T10:26:32.991Z,0.65
2023-04-27T10:29:20.417Z,0.60
2023-04-27T10:32:11.359Z,0.70
2023-04-27T10:35:08.884Z,0.57
2023-04-27T10:38:06.120Z,0.70
2023-04-27T10:40:57.051Z,0.60
2023-04-27T10:43:42.517Z,1.02
2023-04-27T10:46:27.710Z,0.90
2023-04-27T10:49:16.635Z,0.77
2023-04-27T10:52:04.849Z,0.93
2023-04-27T10:54:50.583Z,0.60
2023-04-27T10:57:46.208Z,0.75
2023-04-27T11:00:44.670Z,0.52
2023-04-27T11:03:30.786Z,0.50
2023-04-27T11:06:17.429Z,0.70
2023-04-27T11:09:02.971Z,0.70
2023-04-27T11:11:48.478Z,0.63
2023-04-27T11:14:37.976Z,1.08
2023-04-27T11:17:30.157Z,0.50
2023-04-27T11:20:24.573Z,0.60
2023-04-27T11:23:12.408Z,0.70
2023-04-27T11:25:58.051Z,0.60
2023-04-27T11:28:44.902Z,0.70
2023-04-27T11:31:43.205Z,3.58
2023-04-27T11:34:34.206Z,0.75
2023-04-27T11:37:24.760Z,0.82
2023-04-27T11:40:14.434Z,0.60
2023-04-27T11:43:03.104Z,0.80
2023-04-27T11:45:48.452Z,0.55
2023-04-27T11:48:37.433Z,0.73
2023-04-27T11:51:24.717Z,0.88
2023-04-27T11:54:10.420Z,8.05
2023-04-27T11:57:05.796Z,0.90
2023-04-27T11:59:51.997Z,0.73
2023-04-27T12:05:23.361Z,0.30
2023-04-27T12:08:09.006Z,0.70
2023-04-27T12:10:55.800Z,0.80
2023-04-27T12:13:41.321Z,0.50
2023-04-27T12:16:26.853Z,0.60
2023-04-27T12:19:12.375Z,0.75
2023-04-27T12:21:58.139Z,0.90
2023-04-27T12:27:28.986Z,0.75
2023-04-27T12:30:14.861Z,0.90
2023-04-27T12:33:00.851Z,0.77
2023-04-27T12:35:46.476Z,0.40
2023-04-27T12:38:32.677Z,0.77
2023-04-27T12:44:04.351Z,0.77
2023-04-27T12:46:50.464Z,0.88
2023-04-27T12:49:36.413Z,0.55
2023-04-27T12:52:21.840Z,0.50
2023-04-27T12:55:10.967Z,0.67
2023-04-27T12:58:03.214Z,1.00
2023-04-27T13:00:48.849Z,1.45
2023-04-27T13:03:34.275Z,0.70
2023-04-27T13:06:20.659Z,0.95
2023-04-27T13:09:06.952Z,0.65
2023-04-27T13:11:54.031Z,0.50
2023-04-27T13:14:40.049Z,0.52
2023-04-27T13:17:25.900Z,0.80
2023-04-27T13:20:12.015Z,0.70
2023-04-27T13:22:57.484Z,0.73
2023-04-27T13:25:43.205Z,0.90
2023-04-27T13:28:28.580Z,0.93
2023-04-27T13:31:14.127Z,1.00
2023-04-27T13:34:01.161Z,1.15
2023-04-27T13:36:47.281Z,0.90
2023-04-27T13:39:34.246Z,0.82
2023-04-27T13:42:19.639Z,0.77
2023-04-27T13:45:06.526Z,0.50
2023-04-27T13:47:51.962Z,0.90
2023-04-27T13:50:37.803Z,1.13
2023-04-27T13:53:26.937Z,0.63
2023-04-27T13:56:12.510Z,1.33
2023-04-27T13:58:58.224Z,0.82
2023-04-27T14:01:44.026Z,0.70
2023-04-27T14:04:29.948Z,0.52
2023-04-27T14:07:15.616Z,0.73
2023-04-27T14:10:01.624Z,0.80
2023-04-27T14:12:47.457Z,0.80
2023-04-27T14:15:36.901Z,0.90
2023-04-27T14:18:27.483Z,0.70
2023-04-27T14:21:16.977Z,1.00
2023-04-27T14:24:02.405Z,0.60
2023-04-27T14:26:48.799Z,1.10
2023-04-27T14:29:34.395Z,0.70
2023-04-27T14:32:19.757Z,0.73
2023-04-27T14:35:05.641Z,0.73
2023-04-27T14:37:52.683Z,0.73
2023-04-27T14:40:38.123Z,0.95
2023-04-27T14:43:23.596Z,0.90
2023-04-27T14:46:20.335Z,1.07
2023-04-27T14:49:06.901Z,0.70
2023-04-27T14:54:32.637Z,1.02
2023-04-27T14:57:17.852Z,1.38
2023-04-27T15:00:09.600Z,0.80
2023-04-27T15:02:54.987Z,1.00
2023-04-27T15:05:40.742Z,1.02
2023-04-27T15:08:26.298Z,0.90
2023-04-27T15:11:11.604Z,0.93
2023-04-27T15:13:57.222Z,0.93
2023-04-27T15:16:42.549Z,0.93
2023-04-27T15:19:28.235Z,1.07
2023-04-27T15:22:16.454Z,0.90
2023-04-27T15:25:02.248Z,0.93
2023-04-27T15:27:47.907Z,2.83
2023-04-27T15:30:34.601Z,1.13
2023-04-27T15:33:20.353Z,1.27
2023-04-27T15:36:05.787Z,0.93
2023-04-27T15:38:51.918Z,0.90
2023-04-27T15:41:37.370Z,0.90
2023-04-27T15:44:23.145Z,1.00
2023-04-27T15:47:08.719Z,1.17
2023-04-27T15:49:57.952Z,0.82
2023-04-27T15:52:44.002Z,0.85
2023-04-27T15:55:29.835Z,0.80
2023-04-27T15:58:16.024Z,1.00
2023-04-27T16:03:47.042Z,1.02
2023-04-27T16:06:34.333Z,0.60
2023-04-27T16:09:20.195Z,0.80
2023-04-27T16:12:06.184Z,0.90
2023-04-27T16:14:56.912Z,1.02
2023-04-27T16:17:42.286Z,0.98
2023-04-27T16:20:30.470Z,1.00
2023-04-27T16:23:16.966Z,0.82
2023-04-27T16:26:02.661Z,1.00
2023-04-27T16:28:48.245Z,1.00
2023-04-27T16:31:33.838Z,0.60
2023-04-27T16:34:19.213Z,0.88
2023-04-27T16:37:05.113Z,0.95
2023-04-27T16:39:50.988Z,0.90
2023-04-27T16:42:36.469Z,0.95
2023-04-27T16:45:22.092Z,1.17
2023-04-27T16:48:10.287Z,1.33
2023-04-27T16:50:56.526Z,1.00
2023-04-27T16:56:29.644Z,0.93
2023-04-27T16:59:15.412Z,1.40
2023-04-27T17:02:12.526Z,1.73
2023-04-27T17:05:07.216Z,1.40
2023-04-27T17:07:53.134Z,1.02
2023-04-27T17:10:38.577Z,1.75
2023-04-27T17:13:25.136Z,2.10
2023-04-27T17:18:58.671Z,1.75
2023-04-27T17:21:44.405Z,1.30
2023-04-27T17:24:30.081Z,0.82
2023-04-27T17:27:15.681Z,1.10
2023-04-27T17:30:01.211Z,1.10
2023-04-27T17:32:46.746Z,1.27
2023-04-27T17:35:32.068Z,0.82
2023-04-27T17:38:17.700Z,1.48
2023-04-27T17:41:03.057Z,0.90
2023-04-27T17:43:49.900Z,0.98
2023-04-27T17:46:37.118Z,1.00
2023-04-27T17:49:23.161Z,0.80
2023-04-27T17:52:09.381Z,0.50
2023-04-27T17:54:56.068Z,1.00
2023-04-27T17:57:41.671Z,0.90
2023-04-27T18:00:27.352Z,0.70
2023-04-27T18:03:13.155Z,1.00
2023-04-27T18:05:59.417Z,1.42
2023-04-27T18:08:44.979Z,1.20
2023-04-27T18:11:30.506Z,0.60
2023-04-27T18:14:16.286Z,0.85
2023-04-27T18:17:01.894Z,0.90
2023-04-27T18:19:48.039Z,0.80
2023-04-27T18:22:39.241Z,1.13
2023-04-27T18:25:25.360Z,0.70
2023-04-27T18:28:10.996Z,1.13
2023-04-27T18:30:56.350Z,1.00
2023-04-27T18:33:42.565Z,1.15
2023-04-27T18:39:14.102Z,1.20
2023-04-27T18:41:59.929Z,0.90
2023-04-27T18:44:45.286Z,1.35
2023-04-27T18:47:31.110Z,0.75
2023-04-27T18:50:17.404Z,4.77
2023-04-27T18:53:02.869Z,5.97
2023-04-27T18:55:48.851Z,4.28
2023-04-27T18:58:34.379Z,2.78
2023-04-27T19:01:24.816Z,2.80
2023-04-27T19:04:10.545Z,2.03
2023-04-27T19:06:56.415Z,3.72
2023-04-27T19:09:42.278Z,1.58
2023-04-27T19:12:27.715Z,0.98
2023-04-27T19:15:13.885Z,1.00
2023-04-27T19:18:07.130Z,1.00
2023-04-27T19:23:45.083Z,1.33
2023-04-27T19:26:30.923Z,1.13
2023-04-27T19:29:16.893Z,1.48
2023-04-27T19:32:02.981Z,1.20
2023-04-27T19:34:48.685Z,1.47
2023-04-27T19:37:34.451Z,1.70
2023-04-27T19:40:20.363Z,1.43
2023-04-27T19:43:06.994Z,2.42
2023-04-27T19:45:55.872Z,2.50
2023-04-27T19:48:42.486Z,3.63
2023-04-27T19:54:14.843Z,4.03
2023-04-27T19:57:01.122Z,3.85
2023-04-27T19:59:46.379Z,1.92
2023-04-27T20:02:31.899Z,2.13
2023-04-27T20:05:17.900Z,2.40
2023-04-27T20:08:03.560Z,1.65
2023-04-27T20:10:49.027Z,1.95
2023-04-27T20:13:34.446Z,2.00
2023-04-27T20:16:21.404Z,1.75
2023-04-27T20:19:06.899Z,1.60
2023-04-27T20:21:52.202Z,2.03
2023-04-27T20:24:38.543Z,2.20
2023-04-27T20:27:24.123Z,1.90
2023-04-27T20:30:09.813Z,1.97
2023-04-27T20:32:56.384Z,1.60
2023-04-27T20:35:42.677Z,1.40
2023-04-27T20:38:28.017Z,2.08
2023-04-27T20:41:13.664Z,1.73
2023-04-27T20:44:00.235Z,2.15
2023-04-27T20:46:45.719Z,2.05
2023-04-27T20:49:35.164Z,1.90
2023-04-27T20:52:21.102Z,2.25
2023-04-27T20:55:06.610Z,2.05
2023-04-27T20:57:51.885Z,1.77
2023-04-27T21:00:37.267Z,2.10
2023-04-27T21:03:22.973Z,1.60
2023-04-27T21:06:08.903Z,2.03
2023-04-27T21:08:54.593Z,1.70
2023-04-27T21:11:40.088Z,1.73
2023-04-27T21:14:25.594Z,1.98
2023-04-27T21:17:11.053Z,1.80
2023-04-27T21:19:58.026Z,2.20
2023-04-27T21:22:43.458Z,2.65
2023-04-27T21:25:29.189Z,1.53
2023-04-27T21:28:14.639Z,1.98
2023-04-27T21:31:00.287Z,1.98
2023-04-27T21:33:45.895Z,2.20
2023-04-27T21:36:32.912Z,2.22
2023-04-27T21:39:18.472Z,1.80
2023-04-27T21:42:04.014Z,2.10
2023-04-27T21:44:49.357Z,2.80
2023-04-27T21:47:34.762Z,1.75
2023-04-27T21:50:20.367Z,1.95
2023-04-27T21:53:05.688Z,2.08
2023-04-27T21:55:51.196Z,2.53
2023-04-27T21:58:36.923Z,3.28
2023-04-27T22:01:27.140Z,2.50
2023-04-27T22:04:13.102Z,3.13
2023-04-27T22:06:58.687Z,2.77
2023-04-27T22:09:44.353Z,3.33
2023-04-27T22:12:29.781Z,3.42
2023-04-27T22:15:15.530Z,2.78
2023-04-27T22:18:01.143Z,2.60
2023-04-27T22:20:47.241Z,1.70
2023-04-27T22:23:32.487Z,1.47
2023-04-27T22:26:18.118Z,2.20
2023-04-27T22:29:03.850Z,1.77
2023-04-27T22:31:50.470Z,2.40
2023-04-27T22:37:23.040Z,2.35
2023-04-27T22:40:08.934Z,2.60
2023-04-27T22:42:55.133Z,2.22
2023-04-27T22:45:40.574Z,2.85
2023-04-27T22:48:26.074Z,2.65
2023-04-27T22:51:12.170Z,2.87
2023-04-27T22:53:57.807Z,2.88
2023-04-27T22:56:43.350Z,3.13
2023-04-27T22:59:28.589Z,2.50
2023-04-27T23:02:14.380Z,2.80
2023-04-27T23:04:59.733Z,2.07
2023-04-27T23:07:46.305Z,2.88
2023-04-27T23:10:31.997Z,2.47
2023-04-27T23:13:17.658Z,2.70
2023-04-27T23:16:03.463Z,2.35
2023-04-27T23:18:49.191Z,2.80
2023-04-27T23:21:34.923Z,3.50
2023-04-27T23:24:20.438Z,2.70
2023-04-27T23:27:05.827Z,3.08
2023-04-27T23:29:51.715Z,3.13
2023-04-27T23:32:37.457Z,3.47
2023-04-27T23:35:22.717Z,2.55
2023-04-27T23:38:08.282Z,2.03
2023-04-27T23:40:53.876Z,3.13
2023-04-27T23:43:39.534Z,2.75
2023-04-27T23:46:25.264Z,3.10
2023-04-27T23:49:10.759Z,3.13
2023-04-27T23:51:56.308Z,2.10
2023-04-27T23:54:41.826Z,2.87
2023-04-27T23:57:27.445Z,2.90
